Map

Track Data

SID SEASON NUMBER BASIN SUBBASIN NAME ISO_TIME NATURE LAT LON WMO_WIND WMO_PRES WMO_AGENCY TRACK_TYPE DIST2LAND LANDFALL IFLAG USA_AGENCY USA_ATCF_ID USA_LAT USA_LON USA_RECORD USA_STATUS USA_WIND USA_PRES USA_SSHS USA_R34_NE USA_R34_SE USA_R34_SW USA_R34_NW USA_R50_NE USA_R50_SE USA_R50_SW USA_R50_NW USA_R64_NE USA_R64_SE USA_R64_SW USA_R64_NW USA_POCI USA_ROCI USA_RMW USA_EYE TOKYO_LAT TOKYO_LON TOKYO_GRADE TOKYO_WIND TOKYO_PRES TOKYO_R50_DIR TOKYO_R50_LONG TOKYO_R50_SHORT TOKYO_R30_DIR TOKYO_R30_LONG TOKYO_R30_SHORT TOKYO_LAND CMA_LAT CMA_LON CMA_CAT CMA_WIND CMA_PRES HKO_LAT HKO_LON HKO_CAT HKO_WIND HKO_PRES NEWDELHI_LAT NEWDELHI_LON NEWDELHI_GRADE NEWDELHI_WIND NEWDELHI_PRES NEWDELHI_CI NEWDELHI_DP NEWDELHI_POCI REUNION_LAT REUNION_LON REUNION_TYPE REUNION_WIND REUNION_PRES REUNION_TNUM REUNION_CI REUNION_RMW REUNION_R34_NE REUNION_R34_SE REUNION_R34_SW REUNION_R34_NW REUNION_R50_NE REUNION_R50_SE REUNION_R50_SW REUNION_R50_NW REUNION_R64_NE REUNION_R64_SE REUNION_R64_SW REUNION_R64_NW BOM_LAT BOM_LON BOM_TYPE BOM_WIND BOM_PRES BOM_TNUM BOM_CI BOM_RMW BOM_R34_NE BOM_R34_SE BOM_R34_SW BOM_R34_NW BOM_R50_NE BOM_R50_SE BOM_R50_SW BOM_R50_NW BOM_R64_NE BOM_R64_SE BOM_R64_SW BOM_R64_NW BOM_ROCI BOM_POCI BOM_EYE BOM_POS_METHOD BOM_PRES_METHOD NADI_LAT NADI_LON NADI_CAT NADI_WIND NADI_PRES WELLINGTON_LAT WELLINGTON_LON WELLINGTON_WIND WELLINGTON_PRES DS824_LAT DS824_LON DS824_STAGE DS824_WIND DS824_PRES TD9636_LAT TD9636_LON TD9636_STAGE TD9636_WIND TD9636_PRES TD9635_LAT TD9635_LON TD9635_WIND TD9635_PRES TD9635_ROCI NEUMANN_LAT NEUMANN_LON NEUMANN_CLASS NEUMANN_WIND NEUMANN_PRES MLC_LAT MLC_LON MLC_CLASS MLC_WIND MLC_PRES USA_GUST BOM_GUST BOM_GUST_PER REUNION_GUST REUNION_GUST_PER USA_SEAHGT USA_SEARAD_NE USA_SEARAD_SE USA_SEARAD_SW USA_SEARAD_NW STORM_SPEED STORM_DIR
2021002S11072 2021 1 SI MM DANILO 2021-01-01 18:00:00 NR -11.2000 72.1000 PROVISIONAL 1834 1831 O_____________ tcvitals SI082021 -11.2000 72.1000 39 1000 0 20 20 50 40 1007 170 20 4 339
2021002S11072 2021 1 SI MM DANILO 2021-01-01 21:00:00 NR -11.0050 72.0224 PROVISIONAL 1838 1838 P_____________ SI082021 -11.0050 72.0224 39 1000 0 20 20 50 40 1007 170 20 4 347
2021002S11072 2021 1 SI MM DANILO 2021-01-02 00:00:00 NR -10.8000 72.0000 PROVISIONAL 1851 1851 O_____________ tcvitals SI082021 -10.8000 72.0000 39 1000 0 20 20 50 40 1007 170 20 4 5
2021002S11072 2021 1 SI MM DANILO 2021-01-02 03:00:00 NR -10.5975 72.0701 PROVISIONAL 1873 1873 P_____________ SI082021 -10.5975 72.0701 42 997 0 42 35 52 55 1006 160 20 4 33
2021002S11072 2021 1 SI MM DANILO 2021-01-02 06:00:00 NR -10.5000 72.2000 PROVISIONAL 1888 1888 O_____________ tcvitals SI082021 -10.5000 72.2000 45 995 0 65 50 55 70 1005 150 20 3 91
2021002S11072 2021 1 SI MM DANILO 2021-01-02 09:00:00 NR -10.6050 72.3724 PROVISIONAL 1899 1893 P_____________ SI082021 -10.6050 72.3724 45 994 0 75 57 52 75 1005 150 20 4 136
2021002S11072 2021 1 SI MM DANILO 2021-01-02 12:00:00 NR -10.8000 72.5000 PROVISIONAL 1895 1882 O_____________ tcvitals SI082021 -10.8000 72.5000 45 994 0 85 65 50 80 1005 150 20 4 167
2021002S11072 2021 1 SI MM DANILO 2021-01-02 15:00:00 NR -10.9650 72.4576 PROVISIONAL 1882 1867 P_____________ SI082021 -10.9650 72.4576 45 994 0 72 55 47 77 1005 150 20 3 197
2021002S11072 2021 1 SI MM DANILO 2021-01-02 18:00:00 NR -11.1000 72.4000 PROVISIONAL 1867 1867 O_____________ tcvitals SI082021 -11.1000 72.4000 45 994 0 60 45 45 75 1005 150 20 2 190
2021002S11072 2021 1 SI MM DANILO 2021-01-02 21:00:00 NR -11.1349 72.4251 PROVISIONAL 1867 1867 P_____________ SI082021 -11.1349 72.4251 48 991 0 65 47 45 75 1003 150 17 2 117
2021002S11072 2021 1 SI MM DANILO 2021-01-03 00:00:00 NR -11.2000 72.6000 PROVISIONAL 1879 1879 O_____________ tcvitals SI082021 -11.2000 72.6000 51 989 0 70 50 45 75 1002 150 14 6 116
2021002S11072 2021 1 SI MM DANILO 2021-01-03 03:00:00 NR -11.4127 73.0124 PROVISIONAL 1903 1903 P_____________ SI082021 -11.4127 73.0124 52 988 0 85 47 42 87 1002 145 14 10 120
2021002S11072 2021 1 SI MM DANILO 2021-01-03 06:00:00 NR -11.7000 73.5000 PROVISIONAL 1932 1932 O_____________ tcvitals SI082021 -11.7000 73.5000 54 987 0 100 45 40 100 1003 140 14 10 126
2021002S11072 2021 1 SI MM DANILO 2021-01-03 09:00:00 NR -12.0224 73.8575 PROVISIONAL 1952 1947 P_____________ SI082021 -12.0224 73.8575 54 985 0 102 45 42 100 1001 127 14 9 131
2021002S11072 2021 1 SI MM DANILO 2021-01-03 12:00:00 NR -12.3000 74.2000 PROVISIONAL 1964 1964 O_____________ tcvitals SI082021 -12.3000 74.2000 54 984 0 105 45 45 100 999 115 14 8 115
2021002S11072 2021 1 SI MM DANILO 2021-01-03 15:00:00 NR -12.3701 74.6153 PROVISIONAL 1997 1997 P_____________ SI082021 -12.3701 74.6153 54 984 0 105 45 45 100 999 115 14 8 104
2021002S11072 2021 1 SI MM DANILO 2021-01-03 18:00:00 NR -12.5000 75.0000 PROVISIONAL 2030 2030 O_____________ tcvitals SI082021 -12.5000 75.0000 54 984 0 105 45 45 100 999 115 14 8 129
2021002S11072 2021 1 SI MM DANILO 2021-01-03 21:00:00 NR -12.9024 75.2800 PROVISIONAL 2038 2029 P_____________ SI082021 -12.9024 75.2800 54 984 0 115 47 47 100 999 115 17 11 154
2021002S11072 2021 1 SI MM DANILO 2021-01-04 00:00:00 NR -13.5000 75.5000 PROVISIONAL 2029 2014 O_____________ tcvitals SI082021 -13.5000 75.5000 54 984 0 126 50 50 100 999 115 20 15 163
2021002S11072 2021 1 SI MM DANILO 2021-01-04 03:00:00 NR -14.2950 75.7148 PROVISIONAL 2014 2003 P_____________ SI082021 -14.2950 75.7148 52 988 0 126 57 60 100 1002 162 17 16 166
2021002S11072 2021 1 SI MM DANILO 2021-01-04 06:00:00 NR -15.0000 75.9000 PROVISIONAL 2006 2002 O_____________ tcvitals SI082021 -15.0000 75.9000 51 993 0 126 65 70 100 1005 210 14 10 160
2021002S11072 2021 1 SI MM DANILO 2021-01-04 09:00:00 NR -15.2750 76.0802 PROVISIONAL 2015 2015 P_____________ SI082021 -15.2750 76.0802 51 991 0 128 67 70 100 1004 210 17 5 144
2021002S11072 2021 1 SI MM DANILO 2021-01-04 12:00:00 NR -15.4000 76.2000 PROVISIONAL 2021 2014 O_____________ tcvitals SI082021 -15.4000 76.2000 51 990 0 130 70 70 100 1003 210 20 4 162
2021002S11072 2021 1 SI MM DANILO 2021-01-04 15:00:00 NR -15.6650 76.2076 PROVISIONAL 2011 2004 P_____________ SI082021 -15.6650 76.2076 51 991 0 110 82 75 87 1004 260 20 5 178
2021002S11072 2021 1 SI MM DANILO 2021-01-04 18:00:00 NR -15.9000 76.2000 PROVISIONAL 2004 2001 O_____________ tcvitals SI082021 -15.9000 76.2000 51 993 0 90 95 80 75 1006 310 20 4 168
2021002S11072 2021 1 SI MM DANILO 2021-01-04 21:00:00 NR -16.0150 76.2850 PROVISIONAL 2011 2008 P_____________ SI082021 -16.0150 76.2850 57 988 0 90 102 82 77 1006 310 20 3 136
2021002S11072 2021 1 SI MM DANILO 2021-01-05 00:00:00 NR -16.1000 76.4000 PROVISIONAL 2019 2019 O_____________ tcvitals SI082021 -16.1000 76.4000 64 984 1 90 110 85 80 1006 310 20 3 131
2021002S11072 2021 1 SI MM DANILO 2021-01-05 03:00:00 NR -16.2425 76.5599 PROVISIONAL 2036 2030 P_____________ SI082021 -16.2425 76.5599 64 983 1 90 115 92 80 1005 260 22 4 147
2021002S11072 2021 1 SI MM DANILO 2021-01-05 06:00:00 NR -16.4000 76.6000 PROVISIONAL 2030 2006 O_____________ tcvitals SI082021 -16.4000 76.6000 64 982 1 90 120 100 80 1005 210 25 4 215
2021002S11072 2021 1 SI MM DANILO 2021-01-05 09:00:00 NR -16.5427 76.3451 PROVISIONAL 1996 1959 P_____________ SI082021 -16.5427 76.3451 67 980 1 85 105 105 82 1005 205 25 7 242
2021002S11072 2021 1 SI MM DANILO 2021-01-05 12:00:00 NR -16.7000 76.0000 PROVISIONAL 1959 1923 O_____________ tcvitals SI082021 -16.7000 76.0000 70 979 1 80 90 110 85 1005 200 25 7 236
2021002S11072 2021 1 SI MM DANILO 2021-01-05 15:00:00 NR -16.9375 75.7251 PROVISIONAL 1923 1907 P_____________ SI082021 -16.9375 75.7251 65 983 1 80 90 110 85 1005 200 25 6 224
2021002S11072 2021 1 SI MM DANILO 2021-01-05 18:00:00 NR -17.1000 75.6000 PROVISIONAL 1907 1907 O_____________ tcvitals SI082021 -17.1000 75.6000 60 987 0 80 90 110 85 1006 200 25 1 141
2021002S11072 2021 1 SI MM DANILO 2021-01-05 21:00:00 NR -17.0526 75.8227 PROVISIONAL 1928 1928 P_____________ SI082021 -17.0526 75.8227 55 988 0 80 90 110 85 1004 185 27 4 62
2021002S11072 2021 1 SI MM DANILO 2021-01-06 00:00:00 NR -16.9000 76.0000 PROVISIONAL 1954 1936 O_____________ tcvitals SI082021 -16.9000 76.0000 51 989 0 80 90 110 85 1003 170 30 3 346
2021002S11072 2021 1 SI MM DANILO 2021-01-06 03:00:00 NR -16.7426 75.7398 PROVISIONAL 1929 1890 P_____________ SI082021 -16.7426 75.7398 45 991 0 77 95 110 85 1003 170 30 7 294
2021002S11072 2021 1 SI MM DANILO 2021-01-06 06:00:00 NR -16.6000 75.3000 PROVISIONAL 1890 1852 O_____________ tcvitals SI082021 -16.6000 75.3000 39 994 0 75 100 110 85 1003 170 30 8 284
2021002S11072 2021 1 SI MM DANILO 2021-01-06 09:00:00 NR -16.5424 74.9152 PROVISIONAL 1852 1811 P_____________ SI082021 -16.5424 74.9152 37 995 0 47 77 85 52 1003 155 42 8 277
2021002S11072 2021 1 SI MM DANILO 2021-01-06 12:00:00 NR -16.5000 74.5000 PROVISIONAL 1811 1773 O_____________ tcvitals SI082021 -16.5000 74.5000 35 996 0 20 55 60 20 1003 140 55 8 280
2021002S11072 2021 1 SI MM DANILO 2021-01-06 15:00:00 NR -16.3925 74.0574 PROVISIONAL 1773 1726 P_____________ SI082021 -16.3925 74.0574 35 998 0 62 72 1004 152 52 9 283
2021002S11072 2021 1 SI MM DANILO 2021-01-06 18:00:00 NR -16.3000 73.6000 PROVISIONAL 1726 1685 O_____________ tcvitals SI082021 -16.3000 73.6000 35 1000 0 70 85 1005 165 50 9 277
2021002S11072 2021 1 SI MM DANILO 2021-01-06 21:00:00 NR -16.2923 73.1652 PROVISIONAL 1685 1634 P_____________ SI082021 -16.2923 73.1652 35 1000 0 70 85 1005 165 50 9 270
2021002S11072 2021 1 SI MM DANILO 2021-01-07 00:00:00 NR -16.3000 72.7000 PROVISIONAL 1634 1587 O_____________ tcvitals SI082021 -16.3000 72.7000 35 1000 0 70 85 1005 165 50 9 273
2021002S11072 2021 1 SI MM DANILO 2021-01-07 03:00:00 NR -16.2423 72.1798 PROVISIONAL 1587 1527 P_____________ SI082021 -16.2423 72.1798 35 1000 0 65 72 1004 167 42 11 275
2021002S11072 2021 1 SI MM DANILO 2021-01-07 06:00:00 NR -16.2000 71.6000 PROVISIONAL 1527 1466 O_____________ tcvitals SI082021 -16.2000 71.6000 35 1000 0 60 60 1004 170 35 12 271
2021002S11072 2021 1 SI MM DANILO 2021-01-07 09:00:00 NR -16.2274 70.9725 PROVISIONAL 1466 1393 P_____________ SI082021 -16.2274 70.9725 35 999 0 60 62 1003 185 35 13 265
2021002S11072 2021 1 SI MM DANILO 2021-01-07 12:00:00 NR -16.3000 70.3000 PROVISIONAL 1393 1319 O_____________ tcvitals SI082021 -16.3000 70.3000 35 998 0 60 65 1002 200 35 13 264
2021002S11072 2021 1 SI MM DANILO 2021-01-07 15:00:00 NR -16.3626 69.5773 PROVISIONAL 1319 1245 P_____________ SI082021 -16.3626 69.5773 37 997 0 60 65 1002 200 35 14 262
2021002S11072 2021 1 SI MM DANILO 2021-01-07 18:00:00 NR -16.5000 68.9000 PROVISIONAL 1245 1183 O_____________ tcvitals SI082021 -16.5000 68.9000 39 996 0 60 65 1002 200 35 12 250
2021002S11072 2021 1 SI MM DANILO 2021-01-07 21:00:00 NR -16.7770 68.3925 PROVISIONAL 1183 1122 P_____________ SI082021 -16.7770 68.3925 39 995 0 77 65 1002 200 42 11 238
2021002S11072 2021 1 SI MM DANILO 2021-01-08 00:00:00 NR -17.1000 67.9000 PROVISIONAL 1122 1040 O_____________ tcvitals SI082021 -17.1000 67.9000 39 995 0 95 65 1002 200 50 13 243
2021002S11072 2021 1 SI MM DANILO 2021-01-08 03:00:00 NR -17.3656 67.1753 PROVISIONAL 1040 973 P_____________ SI082021 -17.3656 67.1753 37 997 0 90 65 1003 200 50 13 248
2021002S11072 2021 1 SI MM DANILO 2021-01-08 06:00:00 NR -17.6000 66.6000 PROVISIONAL 973 959 O_____________ tcvitals SI082021 -17.6000 66.6000 35 1000 0 85 65 1004 200 50 7 232
2021002S11072 2021 1 SI MM DANILO 2021-01-08 09:00:00 NR -17.8070 66.5769 PROVISIONAL 966 959 P_____________ SI082021 -17.8070 66.5769 32 999 -1 1003 200 50 4 0
2021002S11072 2021 1 SI MM DANILO 2021-01-08 12:00:00 NR -18.0000 66.6000 PROVISIONAL 959 912 O_____________ tcvitals SI082021 -18.0000 66.6000 29 998 -1 1002 200 50 6 220
2021002S11072 2021 1 SI MM DANILO 2021-01-08 15:00:00 NR -18.2300 66.2054 PROVISIONAL 912 845 P_____________ SI082021 -18.2300 66.2054 29 999 -1 1003 187 50 10 247
2021002S11072 2021 1 SI MM DANILO 2021-01-08 18:00:00 NR -18.4000 65.6000 PROVISIONAL 845 784 O_____________ tcvitals SI082021 -18.4000 65.6000 29 1000 -1 1004 175 50 12 260
2021002S11072 2021 1 SI MM DANILO 2021-01-08 21:00:00 NR -18.4405 64.9146 PROVISIONAL 774 704 P_____________ SI082021 -18.4405 64.9146 27 1001 -1 1004 175 50 13 270
2021002S11072 2021 1 SI MM DANILO 2021-01-09 00:00:00 NR -18.4000 64.2000 PROVISIONAL 704 O_____________ tcvitals SI082021 -18.4000 64.2000 25 1002 -1 1004 175 50 14 273

About IBTrACS Database

This database is a web-friendly format of International Best Track Archive for Climate Stewardship (IBTrACS), a global best track data archive curated by NOAA dating back to 1842.

Updated: 2021-12-03